Time;durP1;ratioP1;P1;durP2;ratioP2;P2;SDS_P1;SDS_P2;PMS_P1;PMS_P2;Temp;Humidity;BMP_temperature;BMP_pressure;BME280_temperature;BME280_humidity;BME280_pressure;Samples;Min_cycle;Max_cycle;Signal;HPM_P1;HPM_P2
2022/11/02 00:03:36;;;;;;;42.75;26.92;;;;;;;8.35;79.46;98230.38;10334685;28;20076;-56
2022/11/02 00:08:35;;;;;;;44.53;26.35;;;;;;;8.23;80.34;98219.84;10334869;28;20040;-56
2022/11/02 00:13:34;;;;;;;43.72;24.83;;;;;;;8.21;80.36;98230.16;10334261;28;20025;-55
2022/11/02 00:18:34;;;;;;;46.40;25.45;;;;;;;8.17;80.07;98224.91;10334284;28;20492;-55
2022/11/02 00:23:33;;;;;;;45.03;26.50;;;;;;;8.11;80.62;98224.81;10334421;28;20087;-56
2022/11/02 00:28:32;;;;;;;44.58;22.77;;;;;;;8.05;80.87;98228.16;10334066;28;20059;-55
2022/11/02 00:33:31;;;;;;;37.85;20.33;;;;;;;7.98;80.68;98219.44;10333771;28;20037;-55
2022/11/02 00:38:31;;;;;;;38.13;19.42;;;;;;;7.98;80.85;98216.84;10334101;28;20404;-56
2022/11/02 00:43:30;;;;;;;34.75;16.27;;;;;;;7.90;81.19;98223.63;10334357;28;20069;-55
2022/11/02 00:48:28;;;;;;;30.15;14.02;;;;;;;7.66;82.37;98222.34;10336720;28;20467;-56
2022/11/02 00:53:27;;;;;;;30.50;15.43;;;;;;;7.45;82.43;98219.34;10336408;28;20029;-55
2022/11/02 00:58:26;;;;;;;28.73;14.70;;;;;;;7.39;82.45;98214.06;10336286;28;20128;-55
2022/11/02 01:03:25;;;;;;;31.48;15.35;;;;;;;7.32;83.35;98212.19;10336044;28;20029;-55
2022/11/02 01:08:24;;;;;;;28.17;15.57;;;;;;;7.29;83.65;98212.13;10335965;28;20029;-55
2022/11/02 01:13:23;;;;;;;27.10;15.65;;;;;;;7.27;84.06;98208.66;10335732;28;20496;-56
2022/11/02 01:18:22;;;;;;;29.52;16.48;;;;;;;7.25;83.80;98196.59;10335630;28;20104;-55
2022/11/02 01:23:21;;;;;;;31.58;16.60;;;;;;;7.22;83.65;98190.50;10335523;28;20348;-55
2022/11/02 01:28:20;;;;;;;27.33;16.25;;;;;;;7.21;84.40;98193.91;10334730;28;20036;-55
2022/11/02 01:33:19;;;;;;;31.77;15.60;;;;;;;7.22;84.48;98191.38;10335134;28;20045;-55
2022/11/02 01:38:18;;;;;;;35.70;17.33;;;;;;;7.20;84.30;98187.88;10334998;28;20109;-55
2022/11/02 01:43:32;;;;;;;29.77;16.10;;;;;;;7.22;84.47;98183.63;10334540;28;20097;-55
2022/11/02 01:48:38;;;;;;;31.13;16.75;;;;;;;7.19;85.21;98175.84;10331272;28;20508;-54
2022/11/02 01:53:45;;;;;;;27.60;16.05;;;;;;;7.18;84.94;98184.41;10331389;28;20069;-55
2022/11/02 01:58:48;;;;;;;26.25;15.88;;;;;;;7.14;85.07;98180.00;10330894;28;20057;-54
2022/11/02 02:03:48;;;;;;;28.02;15.48;;;;;;;7.04;84.63;98167.78;10331251;28;20053;-54
2022/11/02 02:08:50;;;;;;;26.50;15.15;;;;;;;6.98;85.17;98175.41;10330600;28;20787;-54
2022/11/02 02:13:50;;;;;;;24.33;14.57;;;;;;;6.91;84.44;98163.22;10330709;28;20474;-55
2022/11/02 02:18:55;;;;;;;23.30;12.40;;;;;;;6.87;84.59;98166.59;10330636;28;20070;-55
2022/11/02 02:24:15;;;;;;;21.50;13.05;;;;;;;6.87;85.18;98158.84;10330042;28;20099;-55
2022/11/02 02:29:22;;;;;;;27.88;13.65;;;;;;;6.85;84.97;98163.09;10330433;28;20073;-55
2022/11/02 02:34:29;;;;;;;26.38;14.82;;;;;;;6.77;85.11;98153.50;10330472;28;20595;-55
2022/11/02 02:39:36;;;;;;;29.63;16.90;;;;;;;6.80;85.26;98161.28;10330620;28;20068;-55
2022/11/02 02:44:41;;;;;;;37.75;18.17;;;;;;;6.70;85.52;98158.47;10338180;28;20459;-55
2022/11/02 02:49:47;;;;;;;32.50;17.17;;;;;;;6.72;85.53;98182.59;10337949;28;20080;-55
2022/11/02 02:54:50;;;;;;;31.08;17.23;;;;;;;6.65;85.22;98180.72;10337688;28;20068;-55
2022/11/02 02:59:49;;;;;;;30.75;15.02;;;;;;;6.57;86.15;98188.31;10337524;28;20503;-55
2022/11/02 03:04:48;;;;;;;34.08;16.58;;;;;;;6.52;85.88;98189.94;10337389;28;20595;-55
2022/11/02 03:10:10;;;;;;;28.25;17.55;;;;;;;6.47;85.67;98170.88;10336765;28;20504;-55
2022/11/02 03:15:18;;;;;;;30.33;16.67;;;;;;;6.37;85.86;98181.03;10337018;28;20065;-55
2022/11/02 03:20:54;;;;;;;29.25;17.70;;;;;;;6.31;85.58;98174.84;10336568;28;20500;-55
2022/11/02 03:26:04;;;;;;;28.88;17.00;;;;;;;6.28;86.54;98169.59;10336711;28;20073;-55
2022/11/02 03:31:12;;;;;;;33.35;18.23;;;;;;;6.24;86.26;98170.41;10336049;28;20073;-55
2022/11/02 03:36:18;;;;;;;30.25;18.85;;;;;;;6.20;87.05;98177.16;10335884;28;20436;-54
2022/11/02 03:41:20;;;;;;;32.58;17.45;;;;;;;6.17;86.97;98166.81;10335570;28;20061;-55
2022/11/02 03:46:20;;;;;;;27.25;16.38;;;;;;;6.13;87.44;98162.41;10335545;28;20073;-55
2022/11/02 03:51:22;;;;;;;27.88;15.50;;;;;;;6.12;87.19;98165.84;10335058;28;20081;-56
2022/11/02 03:56:31;;;;;;;31.27;16.17;;;;;;;6.15;86.93;98168.47;10334966;28;20084;-55
2022/11/02 04:01:37;;;;;;;35.33;19.35;;;;;;;6.18;86.22;98165.94;10335503;28;20164;-55
2022/11/02 04:06:38;;;;;;;39.13;20.85;;;;;;;6.18;86.84;98159.09;10335084;28;20080;-56
2022/11/02 04:19:26;;;;;;;38.85;18.45;;;;;;;5.96;85.84;98160.31;10335184;28;20430;-55
2022/11/02 04:27:32;;;;;;;30.38;15.77;;;;;;;5.68;85.35;98165.63;10334829;28;20516;-56
2022/11/02 04:43:13;;;;;;;33.40;17.33;;;;;;;5.48;85.91;98147.94;10312956;28;20156;-56
2022/11/02 04:48:12;;;;;;;35.30;17.75;;;;;;;5.51;85.96;98152.34;10330655;28;20049;-56
2022/11/02 04:53:10;;;;;;;30.60;17.65;;;;;;;5.49;85.72;98154.88;10331950;28;20032;-55
2022/11/02 04:58:09;;;;;;;34.53;19.02;;;;;;;5.53;85.58;98155.78;10331024;28;20120;-56
2022/11/02 05:03:08;;;;;;;38.00;20.38;;;;;;;5.60;86.06;98164.56;10328779;28;20013;-56
2022/11/02 05:08:07;;;;;;;38.53;21.75;;;;;;;5.65;85.95;98166.44;10331093;28;20124;-56
2022/11/02 05:13:06;;;;;;;41.25;20.25;;;;;;;5.67;86.11;98176.75;10330485;28;20033;-55
2022/11/02 05:18:05;;;;;;;36.45;19.85;;;;;;;5.68;86.05;98178.50;10330529;28;20083;-55
2022/11/02 05:23:05;;;;;;;49.75;22.23;;;;;;;5.76;86.07;98183.00;10330699;28;20475;-55
2022/11/02 05:28:04;;;;;;;49.03;23.27;;;;;;;5.81;85.88;98184.81;10329523;28;20477;-54
2022/11/02 05:33:03;;;;;;;52.00;28.73;;;;;;;5.84;85.96;98193.50;10329787;28;20112;-55
2022/11/02 05:38:02;;;;;;;48.63;28.17;;;;;;;5.91;85.93;98187.66;10330329;28;20039;-54
2022/11/02 05:43:02;;;;;;;40.85;23.95;;;;;;;6.01;85.85;98181.03;10323262;28;20069;-54
2022/11/02 05:48:05;;;;;;;55.53;24.55;;;;;;;6.14;86.26;98202.78;10331323;28;20080;-54
2022/11/02 05:53:04;;;;;;;46.60;22.67;;;;;;;6.27;86.05;98209.13;10334955;28;20071;-55
2022/11/02 05:58:03;;;;;;;43.90;24.38;;;;;;;6.38;86.31;98205.94;10332418;28;20124;-55
2022/11/02 06:03:02;;;;;;;61.00;25.55;;;;;;;6.52;85.54;98215.72;10334049;28;20044;-54
2022/11/02 06:08:01;;;;;;;50.05;24.60;;;;;;;6.66;85.33;98216.88;10333903;28;20394;-55
2022/11/02 06:13:02;;;;;;;51.88;27.25;;;;;;;6.80;85.98;98214.59;10333843;28;20497;-55
2022/11/02 06:18:01;;;;;;;64.30;30.35;;;;;;;6.94;85.08;98217.47;10341462;28;20040;-54
2022/11/02 06:23:00;;;;;;;66.00;28.15;;;;;;;7.01;85.57;98216.75;10341834;28;20072;-54
2022/11/02 06:27:58;;;;;;;58.30;25.83;;;;;;;7.18;85.04;98219.66;10341690;28;20072;-55
2022/11/02 06:32:57;;;;;;;48.22;25.42;;;;;;;7.24;84.90;98224.94;10342563;28;20021;-54
2022/11/02 06:37:56;;;;;;;54.50;27.73;;;;;;;7.37;84.05;98233.81;10319826;28;20584;-55
2022/11/02 06:42:56;;;;;;;45.33;24.92;;;;;;;7.52;84.33;98226.41;10311788;28;20455;-54
2022/11/02 06:47:55;;;;;;;40.67;24.55;;;;;;;7.72;84.09;98236.22;10344709;28;20087;-55
2022/11/02 06:52:54;;;;;;;46.95;24.85;;;;;;;7.90;84.20;98228.78;10364816;28;20061;-55
2022/11/02 06:57:53;;;;;;;42.95;25.65;;;;;;;8.05;84.14;98223.88;10337109;28;20034;-55
2022/11/02 07:03:04;;;;;;;50.35;25.85;;;;;;;8.25;84.09;98215.59;10336559;28;20053;-55
2022/11/02 07:08:03;;;;;;;49.78;26.75;;;;;;;8.42;83.43;98216.69;10335595;28;20069;-54
2022/11/02 07:13:02;;;;;;;;;;;;;;;8.66;83.09;98213.59;10333742;28;20064;-55
2022/11/02 07:18:01;;;;;;;46.08;25.38;;;;;;;8.91;82.66;98214.78;10332698;28;19917;-55
2022/11/02 07:23:02;;;;;;;46.20;26.30;;;;;;;9.18;82.40;98215.97;10333803;28;20064;-55
2022/11/02 07:28:02;;;;;;;50.28;26.90;;;;;;;9.40;81.38;98203.31;10333818;28;20053;-55
2022/11/02 07:33:01;;;;;;;41.05;23.65;;;;;;;9.70;80.94;98198.44;10335557;28;20057;-55
2022/11/02 07:38:03;;;;;;;40.95;23.23;;;;;;;10.02;80.25;98197.84;10335734;28;20057;-54
2022/11/02 07:43:02;;;;;;;37.10;21.80;;;;;;;10.31;79.10;98192.91;10335886;28;20532;-55
2022/11/02 07:48:01;;;;;;;38.92;16.80;;;;;;;10.65;77.21;98193.09;10334873;28;20472;-55
2022/11/02 07:53:00;;;;;;;33.60;16.92;;;;;;;10.98;76.27;98191.56;10335133;28;20594;-55
2022/11/02 07:58:00;;;;;;;34.92;18.02;;;;;;;11.29;75.88;98179.59;10334990;28;20032;-55
2022/11/02 08:03:01;;;;;;;32.42;19.13;;;;;;;11.62;73.88;98175.31;10336640;28;20060;-55
2022/11/02 08:08:03;;;;;;;31.00;19.17;;;;;;;11.92;73.13;98173.59;10334385;28;20726;-54
2022/11/02 08:13:02;;;;;;;36.53;17.77;;;;;;;12.21;70.91;98171.88;10333502;28;20060;-55
2022/11/02 08:18:04;;;;;;;31.60;17.75;;;;;;;12.56;69.02;98155.38;10332672;28;20064;-55
2022/11/02 08:23:04;;;;;;;36.50;18.23;;;;;;;12.89;67.27;98143.97;10336266;28;20052;-55
2022/11/02 08:28:04;;;;;;;32.63;18.42;;;;;;;13.31;64.39;98152.44;10331510;28;20084;-55
2022/11/02 08:33:10;;;;;;;27.77;17.67;;;;;;;13.67;62.72;98136.59;10335073;28;20452;-54
2022/11/02 08:38:09;;;;;;;32.90;16.83;;;;;;;13.96;60.01;98141.59;10334916;28;20077;-55
2022/11/02 08:43:09;;;;;;;;;;;;;;;14.27;58.28;98142.19;10334734;28;20460;-55
2022/11/02 08:48:08;;;;;;;27.33;15.40;;;;;;;14.52;57.30;98145.44;10333768;28;19952;-55
2022/11/02 08:53:07;;;;;;;29.90;16.20;;;;;;;14.88;56.70;98150.28;10334658;28;20061;-55
2022/11/02 08:58:07;;;;;;;25.60;13.55;;;;;;;15.23;55.21;98142.84;10334582;28;20069;-54
2022/11/02 09:03:08;;;;;;;31.15;12.57;;;;;;;15.53;54.96;98137.19;10334691;28;20072;-55
2022/11/02 09:08:11;;;;;;;32.00;12.23;;;;;;;15.76;54.46;98132.47;10334480;28;20064;-56
2022/11/02 09:13:13;;;;;;;22.70;11.07;;;;;;;16.12;54.01;98131.97;10333396;28;20072;-55
2022/11/02 09:18:12;;;;;;;26.77;11.13;;;;;;;16.47;53.49;98131.31;10334261;28;20506;-55
2022/11/02 09:23:11;;;;;;;;;;;;;;;16.80;51.93;98118.47;10334255;28;20544;-56
2022/11/02 09:28:10;;;;;;;29.40;14.00;;;;;;;17.15;50.30;98112.50;10334092;28;19940;-56
2022/11/02 09:33:09;;;;;;;29.30;14.73;;;;;;;17.50;48.84;98103.84;10333273;28;20064;-56
2022/11/02 09:38:08;;;;;;;36.88;15.57;;;;;;;17.90;47.64;98097.66;10333098;28;20065;-56
2022/11/02 09:43:07;;;;;;;31.55;14.07;;;;;;;18.28;46.40;98098.44;10333478;28;20061;-56
2022/11/02 09:48:13;;;;;;;32.05;13.88;;;;;;;18.74;45.23;98080.59;10333162;28;20079;-55
2022/11/02 09:53:18;;;;;;;33.97;13.57;;;;;;;19.09;44.43;98073.41;10333055;28;20095;-55
2022/11/02 09:58:28;;;;;;;28.58;10.38;;;;;;;19.53;42.78;98073.78;10332829;28;20077;-56
2022/11/02 10:04:05;;;;;;;23.77;9.68;;;;;;;19.84;40.59;98068.44;10333326;28;20547;-56
2022/11/02 10:09:18;;;;;;;21.20;7.70;;;;;;;20.24;38.71;98062.66;10281393;28;20701;-56
2022/11/02 10:14:29;;;;;;;23.73;8.07;;;;;;;20.60;37.38;98057.00;10332076;28;20080;-56
2022/11/02 10:19:39;;;;;;;16.40;5.65;;;;;;;21.08;34.83;98044.69;10327861;28;20363;-56
2022/11/02 10:24:43;;;;;;;20.55;7.03;;;;;;;21.57;34.14;98049.78;10324209;28;20501;-56
2022/11/02 10:29:51;;;;;;;15.82;5.30;;;;;;;21.78;33.21;98043.66;10322597;28;20806;-56
2022/11/02 10:34:51;;;;;;;20.50;5.85;;;;;;;21.96;33.52;98040.22;10328756;28;20065;-54
2022/11/02 10:40:13;;;;;;;13.48;5.15;;;;;;;22.11;33.36;98029.97;10329988;28;20067;-54
2022/11/02 10:45:41;;;;;;;16.13;5.88;;;;;;;22.47;31.86;98016.03;10331372;28;20076;-54
2022/11/02 10:51:07;;;;;;;15.93;5.70;;;;;;;22.88;31.47;98015.94;10333570;28;20076;-54
2022/11/02 10:56:17;;;;;;;17.05;6.32;;;;;;;22.98;30.45;98006.66;10333274;28;20053;-54
2022/11/02 11:01:16;;;;;;;14.80;5.15;;;;;;;23.11;28.86;97997.19;10334346;28;20083;-54
2022/11/02 11:06:16;;;;;;;14.80;5.68;;;;;;;23.50;29.07;98001.53;10341589;28;20026;-55
2022/11/02 11:11:23;;;;;;;9.95;4.88;;;;;;;23.70;28.34;97994.34;10340626;28;20059;-54
2022/11/02 11:16:39;;;;;;;17.05;5.00;;;;;;;23.94;27.65;97985.16;10340715;28;20071;-55
2022/11/02 11:21:39;;;;;;;14.82;5.30;;;;;;;23.94;27.54;97961.31;10340239;28;20076;-54
2022/11/02 11:26:38;;;;;;;15.65;4.88;;;;;;;23.81;27.90;97970.81;10340153;28;20032;-54
2022/11/02 11:31:37;;;;;;;13.75;4.95;;;;;;;23.78;27.75;97960.38;10339985;28;20021;-54
2022/11/02 11:36:36;;;;;;;16.17;5.00;;;;;;;23.66;27.76;97955.72;10340582;28;20424;-54
2022/11/02 11:41:39;;;;;;;18.63;5.70;;;;;;;23.74;27.70;97953.53;10341509;28;20034;-54
2022/11/02 11:46:42;;;;;;;12.52;4.80;;;;;;;23.95;27.53;97939.16;10337960;28;20134;-54
2022/11/02 11:51:42;;;;;;;14.10;4.70;;;;;;;24.04;26.93;97937.81;10338527;28;20501;-55
2022/11/02 11:56:41;;;;;;;11.75;4.45;;;;;;;24.16;26.77;97938.97;10337530;28;20061;-54
2022/11/02 12:01:40;;;;;;;13.02;4.40;;;;;;;23.98;27.00;97938.13;10337604;28;20041;-55
2022/11/02 12:06:56;;;;;;;14.60;5.15;;;;;;;24.05;26.90;97919.19;10337747;28;20032;-55
2022/11/02 12:12:30;;;;;;;15.30;5.25;;;;;;;24.15;26.77;97910.75;10336896;28;20069;-55
2022/11/02 12:17:50;;;;;;;15.90;4.40;;;;;;;24.09;26.32;97911.94;10286445;28;20069;-56
2022/11/02 12:23:02;;;;;;;20.27;4.95;;;;;;;24.46;26.01;97904.66;10337206;28;20061;-54
2022/11/02 12:28:08;;;;;;;16.98;5.03;;;;;;;24.53;26.35;97891.94;10336088;28;20064;-54
2022/11/02 12:33:34;;;;;;;14.10;5.10;;;;;;;24.47;26.39;97893.97;10335625;28;20068;-55
2022/11/02 12:38:38;;;;;;;9.88;4.18;;;;;;;24.49;26.36;97894.72;10335261;28;20064;-56
2022/11/02 12:43:45;;;;;;;14.30;4.20;;;;;;;24.53;26.22;97881.31;10336493;28;20065;-57
2022/11/02 12:48:56;;;;;;;18.17;4.97;;;;;;;24.44;25.28;97880.03;10335157;28;20081;-55
2022/11/02 12:54:01;;;;;;;12.18;4.28;;;;;;;24.59;25.61;97883.59;10327988;28;20092;-55
2022/11/02 12:59:00;;;;;;;14.05;4.40;;;;;;;24.63;25.63;97874.53;10300591;28;20934;-55
2022/11/02 13:04:07;;;;;;;18.65;4.60;;;;;;;24.70;25.86;97874.09;10288911;28;20133;-55
2022/11/02 13:09:17;;;;;;;11.98;3.90;;;;;;;24.42;25.55;97872.13;10289354;28;20076;-55
2022/11/02 13:14:19;;;;;;;17.02;4.43;;;;;;;24.42;24.92;97866.84;10310588;28;20134;-55
2022/11/02 13:19:34;;;;;;;17.98;4.88;;;;;;;24.59;24.63;97868.56;10327763;28;20072;-55
2022/11/02 13:24:39;;;;;;;16.33;5.15;;;;;;;24.77;24.42;97856.03;10287292;28;20549;-55
2022/11/02 13:29:44;;;;;;;15.32;4.63;;;;;;;24.92;24.45;97864.97;10306617;28;20057;-55
2022/11/02 13:34:46;;;;;;;17.45;4.60;;;;;;;24.98;24.94;97863.75;10323887;28;20064;-55
2022/11/02 13:39:51;;;;;;;11.60;4.18;;;;;;;24.70;25.48;97865.28;10307909;28;20482;-55
2022/11/02 13:45:08;;;;;;;47.10;21.20;;;;;;;24.45;25.56;97856.06;10304166;28;20112;-55
2022/11/02 13:50:12;;;;;;;78.32;32.60;;;;;;;24.16;26.23;97862.94;10328652;28;20081;-55
2022/11/02 13:55:43;;;;;;;354.70;185.68;;;;;;;24.11;26.18;97858.81;10329834;28;20045;-55
2022/11/02 14:00:44;;;;;;;450.48;235.60;;;;;;;24.01;26.50;97851.38;10321642;28;20068;-55
2022/11/02 14:06:10;;;;;;;521.30;284.23;;;;;;;24.07;26.48;97863.44;10330964;28;20079;-55
2022/11/02 14:11:09;;;;;;;110.13;43.83;;;;;;;24.09;26.91;97863.34;10314163;28;20513;-55
2022/11/02 14:16:08;;;;;;;47.70;22.13;;;;;;;23.99;27.18;97860.34;10308404;28;20551;-55
2022/11/02 14:21:39;;;;;;;31.52;16.35;;;;;;;23.74;27.58;97872.25;10310098;28;20056;-55
2022/11/02 14:26:53;;;;;;;229.93;107.43;;;;;;;23.72;28.05;97865.31;10305409;28;20501;-55
2022/11/02 14:32:01;;;;;;;21.00;8.48;;;;;;;23.51;28.34;97872.56;10290910;28;20478;-55
2022/11/02 14:37:21;;;;;;;20.35;8.52;;;;;;;23.47;28.56;97879.84;10294882;28;20065;-55
2022/11/02 14:42:26;;;;;;;17.48;8.20;;;;;;;23.36;28.77;97890.94;10299630;28;20061;-55
2022/11/02 14:47:32;;;;;;;17.63;6.78;;;;;;;23.29;29.14;97889.53;10299343;28;20076;-55
2022/11/02 14:52:33;;;;;;;23.58;6.97;;;;;;;23.18;29.26;97884.75;10338136;28;20073;-55
2022/11/02 14:57:39;;;;;;;19.60;6.78;;;;;;;22.97;29.43;97891.13;10338001;28;20056;-54
2022/11/02 15:02:38;;;;;;;27.35;7.22;;;;;;;22.70;30.28;97899.44;10337804;28;20469;-55
2022/11/02 15:07:48;;;;;;;28.98;9.30;;;;;;;22.33;31.57;97903.81;10337397;28;20497;-55
2022/11/02 15:12:48;;;;;;;33.97;9.93;;;;;;;21.74;33.05;97896.78;10336580;28;20499;-55
2022/11/02 15:17:46;;;;;;;38.97;10.15;;;;;;;21.21;34.17;97910.47;10337024;28;20061;-55
2022/11/02 15:23:18;;;;;;;22.85;8.00;;;;;;;20.70;34.65;97925.66;10338334;28;20045;-55
2022/11/02 15:28:22;;;;;;;33.75;9.73;;;;;;;20.26;35.71;97913.25;10336818;28;20074;-55
2022/11/02 15:33:44;;;;;;;23.25;9.73;;;;;;;19.82;36.38;97925.41;10338600;28;20073;-55
2022/11/02 15:38:50;;;;;;;31.88;10.13;;;;;;;19.47;37.18;97929.25;10338585;28;20068;-55
2022/11/02 15:44:20;;;;;;;35.40;8.63;;;;;;;19.08;37.69;97927.03;10336138;28;20073;-55
2022/11/02 15:49:29;;;;;;;24.15;7.88;;;;;;;18.78;37.78;97945.50;10317294;28;20344;-55
2022/11/02 15:54:46;;;;;;;39.83;9.48;;;;;;;18.53;38.21;97958.50;10332150;28;20328;-55
2022/11/02 16:00:02;;;;;;;25.92;9.50;;;;;;;18.26;38.91;97960.16;10332168;28;20068;-55
2022/11/02 16:05:04;;;;;;;49.42;18.15;;;;;;;17.94;39.56;97964.53;10331470;28;20115;-55
2022/11/02 16:10:33;;;;;;;31.77;13.73;;;;;;;17.70;40.49;97982.63;10334042;28;20065;-55
2022/11/02 16:15:33;;;;;;;31.20;12.43;;;;;;;17.48;40.46;97978.84;10333303;28;20069;-55
2022/11/02 16:20:35;;;;;;;27.00;12.48;;;;;;;17.22;41.02;97982.97;10335192;28;20065;-55
2022/11/02 16:25:37;;;;;;;33.13;13.38;;;;;;;17.12;40.90;97994.56;10328070;28;20060;-55
2022/11/02 16:30:37;;;;;;;35.38;15.30;;;;;;;16.95;41.48;97989.72;10332261;28;20069;-55
2022/11/02 16:35:36;;;;;;;41.35;18.45;;;;;;;16.77;42.00;98001.47;10332838;28;20069;-55
2022/11/02 16:40:35;;;;;;;36.45;18.42;;;;;;;16.64;42.23;98007.84;10331979;28;20543;-55
2022/11/02 16:45:38;;;;;;;55.53;20.58;;;;;;;16.49;42.68;98012.53;10331146;28;20132;-55
2022/11/02 16:50:37;;;;;;;46.47;16.88;;;;;;;16.30;43.93;98017.28;10331930;28;20365;-55
2022/11/02 16:55:41;;;;;;;;;;;;;;;16.13;43.79;98016.72;10331101;28;20404;-55
2022/11/02 17:00:58;;;;;;;41.88;19.27;;;;;;;16.04;44.43;98030.88;10328946;28;19952;-55
2022/11/02 17:06:01;;;;;;;49.58;21.52;;;;;;;15.88;45.19;98034.66;10345310;28;20134;-55
2022/11/02 17:11:03;;;;;;;50.30;27.55;;;;;;;15.59;45.48;98030.72;10329856;28;20075;-55
2022/11/02 17:16:08;;;;;;;47.72;24.30;;;;;;;15.48;45.90;98030.03;10332151;28;20449;-55
2022/11/02 17:21:15;;;;;;;64.70;37.75;;;;;;;15.34;46.19;98026.78;10332100;28;20076;-55
2022/11/02 17:26:25;;;;;;;59.20;34.92;;;;;;;15.22;47.27;98036.56;10331896;28;20069;-55
2022/11/02 17:31:26;;;;;;;81.65;45.13;;;;;;;14.94;47.88;98032.59;10331682;28;20068;-55
2022/11/02 17:36:25;;;;;;;101.25;58.05;;;;;;;14.79;47.70;98018.00;10331524;28;20119;-55
2022/11/02 17:46:42;;;;;;;90.50;54.22;;;;;;;14.64;48.68;98039.97;10331556;28;20069;-55
2022/11/02 17:51:41;;;;;;;84.45;53.63;;;;;;;14.31;49.89;98039.47;10330765;28;20087;-55
2022/11/02 17:56:40;;;;;;;89.78;53.97;;;;;;;14.28;49.75;98047.31;10331574;28;20513;-55
2022/11/02 18:01:39;;;;;;;87.28;57.75;;;;;;;14.19;50.34;98052.66;10331010;28;20070;-56
2022/11/02 18:06:38;;;;;;;265.92;68.90;;;;;;;14.19;50.21;98048.31;10330755;28;20065;-55
2022/11/02 18:11:37;;;;;;;126.03;55.05;;;;;;;14.11;50.86;98041.44;10333893;28;20036;-55
2022/11/02 18:16:36;;;;;;;81.30;47.75;;;;;;;13.97;51.01;98042.44;10340749;28;20071;-56
2022/11/02 18:21:35;;;;;;;75.50;43.67;;;;;;;13.85;51.44;98055.59;10339473;28;20033;-55
2022/11/02 18:26:34;;;;;;;;;;;;;;;13.66;52.53;98051.44;10339482;28;20484;-56
2022/11/02 18:31:33;;;;;;;130.68;82.70;;;;;;;13.54;53.01;98058.47;10338659;28;20359;-55
2022/11/02 18:36:36;;;;;;;126.20;84.47;;;;;;;13.47;52.83;98055.88;10339087;28;20065;-55
2022/11/02 18:41:36;;;;;;;126.18;83.80;;;;;;;13.41;52.62;98053.34;10338516;28;20068;-55
2022/11/02 18:46:35;;;;;;;127.10;81.03;;;;;;;13.36;53.05;98043.81;10338276;28;20588;-56
2022/11/02 18:51:34;;;;;;;131.52;79.20;;;;;;;13.27;53.53;98056.03;10337467;28;20436;-55
2022/11/02 18:56:33;;;;;;;113.00;74.07;;;;;;;13.16;54.00;98061.31;10338016;28;20037;-55
2022/11/02 19:01:32;;;;;;;;;;;;;;;13.09;54.94;98065.72;10346370;28;20065;-55
2022/11/02 19:11:58;;;;;;;71.18;39.80;;;;;;;13.06;55.36;98055.31;10336524;28;20505;-56
2022/11/02 19:16:57;;;;;;;59.22;33.15;;;;;;;13.09;55.25;98065.72;10334787;28;20084;-55
2022/11/02 19:21:56;;;;;;;68.75;38.88;;;;;;;12.92;55.68;98054.53;10334661;28;20029;-55
2022/11/02 19:26:55;;;;;;;95.55;53.83;;;;;;;12.90;55.93;98053.66;10334463;28;20084;-55
2022/11/02 19:31:54;;;;;;;118.97;63.08;;;;;;;12.86;55.65;98051.94;10334846;28;20048;-55
2022/11/02 19:36:53;;;;;;;119.78;63.53;;;;;;;12.84;56.65;98077.16;10335056;28;20496;-55
2022/11/02 19:41:53;;;;;;;123.45;65.78;;;;;;;12.74;56.38;98060.69;10334657;28;20033;-55
2022/11/02 19:46:52;;;;;;;128.30;69.57;;;;;;;12.79;56.05;98063.25;10334042;28;20076;-56
2022/11/02 19:51:51;;;;;;;131.43;73.45;;;;;;;12.75;56.94;98072.84;10334684;28;20059;-55
2022/11/02 19:56:50;;;;;;;117.20;67.32;;;;;;;12.75;57.21;98085.00;10333967;28;20071;-55
2022/11/02 20:01:50;;;;;;;121.60;68.07;;;;;;;12.75;57.11;98078.06;10333097;28;20029;-55
2022/11/02 20:06:49;;;;;;;132.13;67.65;;;;;;;12.81;56.99;98085.81;10332396;28;20076;-55
2022/11/02 20:11:48;;;;;;;138.45;69.15;;;;;;;12.87;56.87;98085.81;10333700;28;20068;-55
2022/11/02 20:16:47;;;;;;;140.65;71.85;;;;;;;12.93;56.77;98080.56;10332295;28;20037;-55
2022/11/02 20:21:46;;;;;;;168.80;79.75;;;;;;;12.96;56.74;98079.69;10333230;28;20053;-56
2022/11/02 20:26:45;;;;;;;155.18;82.15;;;;;;;12.98;56.53;98075.34;10332913;28;20041;-56
2022/11/02 20:31:44;;;;;;;150.95;79.97;;;;;;;13.02;56.42;98073.56;10332063;28;20053;-56
2022/11/02 20:36:43;;;;;;;142.23;70.10;;;;;;;13.04;56.31;98083.09;10327159;28;20037;-55
2022/11/02 20:41:42;;;;;;;166.95;82.80;;;;;;;12.92;56.95;98086.63;10332246;28;20033;-55
2022/11/02 20:46:44;;;;;;;164.20;85.00;;;;;;;12.98;56.77;98103.09;10332120;28;20505;-55
2022/11/02 20:51:43;;;;;;;158.70;84.43;;;;;;;12.85;57.28;98097.97;10331851;28;20080;-55
2022/11/02 20:56:42;;;;;;;178.23;83.05;;;;;;;12.84;57.20;98095.38;10331715;28;20028;-55
2022/11/02 21:01:41;;;;;;;168.55;81.03;;;;;;;12.71;57.25;98063.31;10332859;28;20033;-55
2022/11/02 21:06:40;;;;;;;154.73;80.32;;;;;;;12.88;57.32;98084.06;10331582;28;20041;-56
2022/11/02 21:16:57;;;;;;;120.93;62.45;;;;;;;12.96;57.37;98078.81;10333441;28;20088;-56
2022/11/02 21:21:56;;;;;;;114.65;58.45;;;;;;;13.01;57.27;98077.91;10332576;28;20074;-56
2022/11/02 21:26:55;;;;;;;119.50;59.17;;;;;;;13.00;57.45;98078.81;10331941;28;20427;-55
2022/11/02 21:31:54;;;;;;;108.78;58.35;;;;;;;13.00;57.49;98091.84;10291796;28;20584;-56
2022/11/02 21:36:53;;;;;;;110.22;56.70;;;;;;;13.01;57.80;98083.13;10291711;28;20180;-57
2022/11/02 21:41:51;;;;;;;116.05;57.30;;;;;;;13.05;57.67;98090.06;10290772;28;20168;-56
2022/11/02 21:46:50;;;;;;;124.95;60.20;;;;;;;13.01;58.42;98093.53;10290716;28;20140;-56
2022/11/02 21:51:49;;;;;;;132.50;64.82;;;;;;;12.78;59.11;98093.66;10290720;28;20132;-56
2022/11/02 21:56:49;;;;;;;127.70;68.88;;;;;;;12.77;59.02;98085.88;10290795;28;20378;-56
2022/11/02 22:01:48;;;;;;;123.38;62.70;;;;;;;12.81;59.04;98090.16;10291411;28;20493;-56
2022/11/02 22:06:48;;;;;;;117.07;62.13;;;;;;;12.59;60.22;98098.06;10291116;28;20077;-57
2022/11/02 22:13:30;;;;;;;120.43;60.92;;;;;;;12.55;60.41;98098.09;10290515;28;20061;-56
2022/11/02 22:17:07;;;;;;;110.95;57.40;;;;;;;12.57;60.09;98101.56;10291789;28;20069;-56
2022/11/02 22:22:06;;;;;;;111.60;55.33;;;;;;;12.59;59.90;98102.41;10290734;28;20084;-55
2022/11/02 22:27:05;;;;;;;112.57;58.60;;;;;;;12.59;60.22;98103.28;10292574;28;20049;-56
2022/11/02 22:32:04;;;;;;;119.43;59.42;;;;;;;12.52;60.46;98107.63;10330487;28;20041;-56
2022/11/02 22:42:20;;;;;;;122.28;58.50;;;;;;;12.43;61.25;98112.00;10331381;28;19959;-56
2022/11/02 22:47:19;;;;;;;116.82;63.42;;;;;;;12.39;61.29;98115.47;10330385;28;20025;-56
2022/11/02 22:52:18;;;;;;;113.22;60.78;;;;;;;12.40;61.38;98109.41;10329991;28;20053;-56
2022/11/02 22:57:17;;;;;;;116.65;58.88;;;;;;;12.36;61.98;98110.28;10331160;28;20136;-56
2022/11/02 23:02:16;;;;;;;104.70;55.20;;;;;;;12.33;62.45;98118.97;10337873;28;20072;-56
2022/11/02 23:07:15;;;;;;;109.03;55.40;;;;;;;12.30;62.06;98119.84;10337245;28;20036;-56
2022/11/02 23:12:14;;;;;;;112.68;56.03;;;;;;;12.31;61.87;98128.53;10337155;28;20598;-56
2022/11/02 23:17:13;;;;;;;86.85;46.00;;;;;;;12.28;62.48;98129.41;10336114;28;20419;-56
2022/11/02 23:27:31;;;;;;;91.50;46.53;;;;;;;12.23;62.32;98138.91;10333396;28;20076;-56
2022/11/02 23:32:30;;;;;;;91.95;47.25;;;;;;;12.18;62.43;98139.78;10333943;28;20091;-56
2022/11/02 23:37:29;;;;;;;93.07;48.58;;;;;;;12.12;63.00;98156.25;10336517;28;20065;-56
2022/11/02 23:42:28;;;;;;;99.60;52.72;;;;;;;12.11;63.37;98151.94;10336354;28;20084;-56
2022/11/02 23:58:04;;;;;;;101.35;56.78;;;;;;;12.06;64.54;98166.66;10336506;28;20507;-56
